Terminal Aerodrome Forecast
Issued by NWS Cleveland, OH

Home | Current Version | Previous Version | Text Only | Print | Product List | Glossary Off
Versions: 1 2 3 4 5 6 7 8 9 10 11 12 13 14 15 16 17

000
FTUS41 KCLE 270400 AAB
TAFYNG
TAF AMD
KYNG 270432Z 2705/2724 32006KT 4SM -SHSN BKN045 OVC100
     FM271000 31003KT P6SM SCT030
     FM271400 26006KT P6SM SCT030
     FM272300 23003KT P6SM SKC=

USA.gov is the U.S. government's official web portal to all federal, state and local government web resources and services.